»·PEaware :: PRD69 KBUR-KSFO

PRD69 :: KBUR-KSFO

FLIGHT INFORMATION

Flight Status: Arrived
Operator: Unknown
More flights by this operator :: More flights under this callsign
Pilot: Aidan A. (8368)
Aircraft: GULFSTREAM G-1159C GULFSTREAM 4
(GLF4)
More flights by this aircraft type
Origin: KBUR Bob Hope-Burbank
United States
Destination: KSFO San Francisco Intl
United States
More flights between these airports :: More routes between these airports
Route: +OROSZ2 COREZ MAKRS SERFR SERFR3
File this flight plan on PilotEdge
Remarks:
Altitude:
(Current/Filed)
34,000ft
Speed:
(Current/Filed)
390kts
Departed: 10-Oct-18 08:08 PM
Arrived: 10-Oct-18 09:09 PM
Distance/Time
Traveled:
284nm/1:01
Distance/Time
To Go:
Arrived

Flight Plot

Page will automatically refresh every two minutes.

Flight plan parsing failed; only flown route is shown


Map Options




Map Legend


Flown Route
Filed Route
Departure Airport
Arrival Airport
Navaid (VOR, NDB)
Fix

Horizontal Profiles

Position Reports

Time Latitude Longitude Heading Altitude Ground
Speed
10-Oct-18 19:53 34.202554 -118.360654 254 783ft 0kts
10-Oct-18 19:54 34.202554 -118.360654 254 783ft 0kts
10-Oct-18 19:55 34.202554 -118.360654 254 783ft 0kts
10-Oct-18 19:56 34.202554 -118.360654 254 783ft 0kts
10-Oct-18 19:57 34.202554 -118.360654 254 783ft 0kts
10-Oct-18 19:58 34.202554 -118.360654 254 783ft 0kts
10-Oct-18 19:59 34.202554 -118.360654 254 783ft 0kts
10-Oct-18 20:00 34.202554 -118.360654 254 783ft 0kts
10-Oct-18 20:01 34.202554 -118.360654 254 783ft 0kts
10-Oct-18 20:02 34.202554 -118.360655 254 783ft 0kts
10-Oct-18 20:03 34.202607 -118.360800 332 783ft 5kts
10-Oct-18 20:04 34.203028 -118.359672 62 783ft 5kts
10-Oct-18 20:05 34.204340 -118.359260 348 783ft 4kts
10-Oct-18 20:06 34.205857 -118.359687 344 783ft 8kts
10-Oct-18 20:07 34.207651 -118.360163 346 783ft 4kts
10-Oct-18 20:08 34.209753 -118.360726 346 783ft 10kts
10-Oct-18 20:09 34.211868 -118.361249 39 783ft 4kts
10-Oct-18 20:10 34.207077 -118.358980 165 783ft 89kts
10-Oct-18 20:11 34.175904 -118.362849 224 2642ft 119kts
10-Oct-18 20:12 34.143960 -118.399256 261 4585ft 164kts
10-Oct-18 20:13 34.173500 -118.451660 312 6048ft 231kts
10-Oct-18 20:14 34.221595 -118.514253 312 8081ft 278kts
10-Oct-18 20:15 34.277937 -118.557572 338 9764ft 279kts
10-Oct-18 20:16 34.344939 -118.606060 317 12337ft 292kts
10-Oct-18 20:17 34.411650 -118.667393 330 14850ft 312kts
10-Oct-18 20:18 34.490408 -118.719863 328 17364ft 330kts
10-Oct-18 20:19 34.571585 -118.776329 326 19866ft 342kts
10-Oct-18 20:20 34.655084 -118.835454 326 22363ft 348kts
10-Oct-18 20:21 34.737321 -118.895723 319 24856ft 339kts
10-Oct-18 20:22 34.799088 -118.973141 291 27342ft 312kts
10-Oct-18 20:23 34.842232 -119.056874 310 29812ft 283kts
10-Oct-18 20:24 34.872775 -119.137222 290 31830ft 245kts
10-Oct-18 20:25 34.897651 -119.214721 294 34004ft 162kts
10-Oct-18 20:26 34.916150 -119.259961 305 33541ft 179kts
10-Oct-18 20:27 34.949134 -119.302905 310 33226ft 182kts
10-Oct-18 20:28 34.982626 -119.348654 309 33288ft 178kts
10-Oct-18 20:29 35.013463 -119.391732 309 33307ft 166kts
10-Oct-18 20:30 35.046289 -119.437845 309 32932ft 187kts
10-Oct-18 20:31 35.085648 -119.493236 309 32040ft 249kts
10-Oct-18 20:32 35.135463 -119.563420 309 32222ft 284kts
10-Oct-18 20:33 35.190793 -119.641486 310 32310ft 322kts
10-Oct-18 20:34 35.252497 -119.728743 310 32307ft 356kts
10-Oct-18 20:35 35.319985 -119.824458 309 32308ft 383kts
10-Oct-18 20:36 35.391139 -119.925705 309 32308ft 400kts
10-Oct-18 20:37 35.464628 -120.030582 309 32308ft 410kts
10-Oct-18 20:38 35.539506 -120.137802 309 32308ft 415kts
10-Oct-18 20:39 35.614648 -120.245790 309 32308ft 417kts
10-Oct-18 20:40 35.685366 -120.358498 299 32311ft 418kts
10-Oct-18 20:41 35.738301 -120.486261 295 32311ft 418kts
10-Oct-18 20:42 35.787511 -120.616153 295 32311ft 419kts
10-Oct-18 20:43 35.837236 -120.748032 294 31628ft 432kts
10-Oct-18 20:44 35.893177 -120.896325 293 30341ft 403kts
10-Oct-18 20:45 35.932470 -121.000725 293 29425ft 404kts
10-Oct-18 20:46 35.979784 -121.126930 293 28471ft 401kts
10-Oct-18 20:47 36.025684 -121.249784 293 28160ft 389kts
10-Oct-18 20:48 36.078297 -121.362561 312 28361ft 374kts
10-Oct-18 20:49 36.166011 -121.442554 323 27230ft 420kts
10-Oct-18 20:50 36.268886 -121.522585 324 25267ft 437kts
10-Oct-18 20:51 36.370914 -121.601428 326 23264ft 416kts
10-Oct-18 20:52 36.466396 -121.676233 326 22068ft 402kts
10-Oct-18 20:53 36.560754 -121.750732 325 21071ft 407kts
10-Oct-18 20:54 36.654708 -121.825144 325 20210ft 393kts
10-Oct-18 20:55 36.749476 -121.891951 337 17152ft 378kts
10-Oct-18 20:56 36.847958 -121.925072 345 13354ft 356kts
10-Oct-18 20:57 36.946179 -121.952951 344 11169ft 367kts
10-Oct-18 20:58 37.024299 -121.981463 342 9001ft 265kts
10-Oct-18 20:59 37.090979 -122.007277 343 8487ft 244kts
10-Oct-18 21:00 37.153776 -122.031039 346 8399ft 226kts
10-Oct-18 21:01 37.211631 -122.052432 338 8496ft 215kts
10-Oct-18 21:02 37.269404 -122.077269 342 8521ft 225kts
10-Oct-18 21:03 37.330765 -122.101330 341 7091ft 237kts
10-Oct-18 21:04 37.391064 -122.125281 345 6393ft 206kts
10-Oct-18 21:05 37.441692 -122.139809 335 6407ft 200kts
10-Oct-18 21:06 37.500094 -122.154063 333 6251ft 211kts
10-Oct-18 21:07 37.537385 -122.189360 320 7642ft 172kts
10-Oct-18 21:08 37.566236 -122.241829 292 3894ft 241kts
10-Oct-18 21:09 37.593727 -122.311605 302 1192ft 166kts
10-Oct-18 21:10 37.612147 -122.353547 294 128ft 120kts
10-Oct-18 21:11 37.620448 -122.373731 298 18ft 7kts
10-Oct-18 21:12 37.622194 -122.375659 37 18ft 0kts
10-Oct-18 21:13 37.623054 -122.376094 297 18ft 6kts
10-Oct-18 21:14 37.624137 -122.378660 296 18ft 4kts
10-Oct-18 21:15 37.624923 -122.380636 296 18ft 5kts
10-Oct-18 21:16 37.626366 -122.381712 332 18ft 3kts
10-Oct-18 21:17 37.626445 -122.381762 332 18ft 0kts

Navigation Log

Ident Type
Flight plan parsing failed, navigation log unavailable